Stations météo

réclame
Mon MeteoGroup
Merida, Espagne (8331): Température de l'air & dewpoint: 16.06.2018 19:00:00 - 22.06.2018 19:00:00 (CEST)Merida, Espagne (8331): Vitesse du vent & gusts: 16.06.2018 19:00:00 - 22.06.2018 19:00:00 (CEST)Merida, Espagne (8331): Direction du vent: 16.06.2018 19:00:00 - 22.06.2018 19:00:00 (CEST)Merida, Espagne (8331): Quantités de précipitations: 16.06.2018 19:00:00 - 22.06.2018 19:00:00 (CEST)
Date & Time tt [°C] td [°C] ff [km/h] ff [knt] fx [km/h] fx [knt] dd rr [mm]
22.06.2018 19:00:00 - - - - - - - -
22.06.2018 18:00:00 34,7 17,9 1 1 16 9 SW 0,0
22.06.2018 17:00:00 35,1 19,1 4 2 20 11 WNW 0,0
22.06.2018 16:00:00 34,1 19,0 10 5 21 11 W 0,0
22.06.2018 15:00:00 32,4 18,6 7 4 17 9 SW 0,0
22.06.2018 14:00:00 31,3 18,3 3 2 16 9 NNW -
22.06.2018 13:00:00 30,8 19,2 4 2 14 8 NNE 0,0
22.06.2018 12:00:00 28,2 19,1 6 3 19 10 E 0,0
22.06.2018 11:00:00 24,2 18,2 8 4 23 12 SSE 0,0
22.06.2018 10:00:00 24,8 18,5 5 3 16 8 W 0,0
22.06.2018 09:00:00 23,1 18,6 9 5 16 9 WSW 0,0
22.06.2018 08:00:00 21,2 17,6 6 3 15 8 W -
22.06.2018 07:00:00 20,7 16,7 10 6 18 10 WSW 0,0
22.06.2018 06:00:00 20,4 16,2 7 4 20 11 WSW 0,0
22.06.2018 05:00:00 21,1 16,7 9 5 21 12 WSW 0,0
22.06.2018 04:00:00 21,2 18,0 10 6 21 11 SW 0,0
22.06.2018 03:00:00 21,6 18,6 9 5 17 9 WSW 0,0
22.06.2018 02:00:00 22,4 19,8 9 5 16 9 WSW -
22.06.2018 01:00:00 23,7 20,3 10 5 18 10 WSW 0,0
22.06.2018 00:00:00 24,9 18,8 9 5 24 13 WSW 0,0
21.06.2018 23:00:00 26,3 16,8 9 5 24 13 WSW 0,0
21.06.2018 22:00:00 27,6 16,2 5 3 12 6 WSW 0,0
21.06.2018 21:00:00 30,5 16,9 8 4 15 8 WSW 0,0
21.06.2018 20:00:00 31,9 16,6 8 4 14 8 W -
21.06.2018 19:00:00 33,2 17,4 7 4 16 9 W 0,0
21.06.2018 18:00:00 34,4 18,5 8 4 21 11 WNW 0,0
21.06.2018 17:00:00 33,0 18,0 5 3 19 10 SE 0,0
21.06.2018 16:00:00 32,2 18,4 5 3 24 13 SSE 0,0
21.06.2018 15:00:00 31,5 18,8 5 3 24 13 SSE 0,0
21.06.2018 14:00:00 29,8 17,9 7 4 23 12 S -
21.06.2018 13:00:00 29,8 19,2 5 3 19 10 NNE 0,0
21.06.2018 12:00:00 25,6 18,0 10 6 24 13 NW 0,0
21.06.2018 11:00:00 24,6 18,3 11 6 19 10 WSW 0,0
21.06.2018 10:00:00 24,1 18,8 9 5 24 13 WSW 0,0
21.06.2018 09:00:00 23,6 19,3 12 6 25 13 WSW 0,0
21.06.2018 08:00:00 21,3 18,7 10 5 21 11 SW -
21.06.2018 07:00:00 20,5 17,7 11 6 32 17 SW 0,0
21.06.2018 06:00:00 22,6 18,2 8 5 16 9 SW 0,0
21.06.2018 05:00:00 20,6 17,8 5 3 11 6 SSW 0,0
21.06.2018 04:00:00 21,6 18,8 5 3 13 7 SW 0,0
21.06.2018 03:00:00 21,5 18,5 2 1 9 5 W 0,0
21.06.2018 02:00:00 23,3 17,5 7 4 14 8 WSW -
21.06.2018 01:00:00 24,5 17,5 8 4 16 9 W 0,0
21.06.2018 00:00:00 25,3 16,7 7 4 20 11 W 0,0
20.06.2018 23:00:00 27,5 16,7 11 6 27 14 W 0,0
20.06.2018 22:00:00 28,1 14,3 10 5 24 13 W 0,0
20.06.2018 21:00:00 30,1 14,2 17 9 32 17 W 0,0
20.06.2018 20:00:00 31,5 14,6 18 10 41 22 WSW -
20.06.2018 19:00:00 31,5 15,4 19 11 39 21 WSW 0,0
20.06.2018 18:00:00 32,5 16,0 20 11 32 17 WSW 0,0
20.06.2018 17:00:00 33,0 16,0 13 7 22 12 W 0,0
20.06.2018 16:00:00 36,7 17,8 5 3 19 10 SW 0,0
20.06.2018 15:00:00 34,5 16,8 3 2 21 11 E 0,0
20.06.2018 14:00:00 33,7 16,6 2 1 14 7 S -
20.06.2018 13:00:00 31,4 15,8 5 3 16 8 NE 0,0
20.06.2018 12:00:00 29,8 15,5 7 4 16 9 E 0,0
20.06.2018 11:00:00 28,9 16,1 7 4 18 10 ESE 0,0
20.06.2018 10:00:00 26,8 15,8 5 3 12 7 ESE 0,0
20.06.2018 09:00:00 23,9 14,9 3 2 8 4 SSE 0,0
20.06.2018 08:00:00 20,9 18,5 1 0 4 2 SSW -
20.06.2018 07:00:00 17,8 16,8 0 0 5 3 ESE 0,0
20.06.2018 06:00:00 18,7 16,1 3 2 8 4 S 0,0
20.06.2018 05:00:00 19,1 16,0 2 1 7 4 S 0,0
20.06.2018 04:00:00 21,2 16,0 4 2 10 6 WSW 0,0
20.06.2018 03:00:00 22,1 15,2 3 1 13 7 W 0,0
20.06.2018 02:00:00 23,7 14,7 6 4 23 12 WSW -
20.06.2018 01:00:00 26,1 15,8 12 6 22 12 SW 0,0
20.06.2018 00:00:00 25,8 20,1 6 3 15 8 SSW 0,0
19.06.2018 23:00:00 26,5 21,5 2 1 14 8 NE 0,0
19.06.2018 22:00:00 28,4 19,3 4 2 37 20 NW 0,3
19.06.2018 21:00:00 34,0 15,0 5 3 13 7 NW 0,0
19.06.2018 20:00:00 35,1 15,4 7 4 18 10 WNW -
19.06.2018 19:00:00 36,4 16,0 6 3 15 8 WNW 0,0
19.06.2018 18:00:00 36,0 16,2 5 3 15 8 NNW 0,0
19.06.2018 17:00:00 37,0 16,6 6 3 18 10 N 0,0
19.06.2018 16:00:00 34,5 15,4 4 2 19 11 W 0,0
19.06.2018 15:00:00 34,5 15,9 4 2 20 11 SW 0,0
19.06.2018 14:00:00 33,3 15,3 3 2 16 8 SSW -
19.06.2018 13:00:00 32,4 15,0 3 2 13 7 N 0,0
19.06.2018 12:00:00 31,2 15,2 5 3 12 7 W 0,0
19.06.2018 11:00:00 28,9 15,4 2 1 11 6 ENE 0,0
19.06.2018 10:00:00 26,2 15,3 5 3 10 6 NNW 0,0
19.06.2018 09:00:00 25,2 16,0 1 1 4 2 NW 0,0
19.06.2018 08:00:00 20,5 16,7 1 1 5 3 WSW -
19.06.2018 07:00:00 17,6 14,5 2 1 11 6 W 0,0
19.06.2018 06:00:00 20,6 15,8 4 2 10 6 NNW 0,0
19.06.2018 05:00:00 18,1 15,7 2 1 6 3 W 0,0
19.06.2018 04:00:00 19,3 15,5 3 2 7 4 WNW 0,0
19.06.2018 03:00:00 20,6 14,2 4 2 19 10 WNW 0,0
19.06.2018 02:00:00 24,0 13,3 8 5 16 8 WSW -
19.06.2018 01:00:00 22,5 11,6 6 3 9 5 S 0,0
19.06.2018 00:00:00 24,9 10,4 2 1 12 6 NNW 0,0
18.06.2018 23:00:00 25,2 10,6 0 0 10 5 N 0,0
18.06.2018 22:00:00 31,2 12,1 5 3 11 6 NNE 0,0
18.06.2018 21:00:00 34,0 13,0 5 3 13 7 NNE 0,0
18.06.2018 20:00:00 35,6 13,8 8 4 19 10 NE -
18.06.2018 19:00:00 35,5 13,7 8 5 23 12 NNE 0,0
18.06.2018 18:00:00 36,3 14,3 11 6 22 12 NNE 0,0
18.06.2018 17:00:00 36,7 14,6 6 4 22 12 NNE 0,0
18.06.2018 16:00:00 36,5 15,1 10 6 24 13 NE 0,0
18.06.2018 15:00:00 35,6 15,3 12 7 23 13 NE 0,0
18.06.2018 14:00:00 34,2 15,2 13 7 29 16 NE -
18.06.2018 13:00:00 33,0 14,6 16 9 31 17 NE 0,0
18.06.2018 12:00:00 31,4 14,1 14 8 32 17 ENE 0,0
18.06.2018 11:00:00 29,7 13,5 17 9 33 18 NE 0,0
18.06.2018 10:00:00 28,1 12,8 18 10 30 16 NE 0,0
18.06.2018 09:00:00 25,5 12,6 10 6 19 10 E 0,0
18.06.2018 08:00:00 23,9 12,5 12 6 20 11 E -
18.06.2018 07:00:00 23,8 12,7 8 4 16 9 ENE 0,0
18.06.2018 06:00:00 24,7 13,9 8 5 16 9 ENE 0,0
18.06.2018 05:00:00 19,8 13,9 3 2 6 3 NNE 0,0
18.06.2018 04:00:00 21,4 12,5 3 2 12 7 S 0,0
18.06.2018 03:00:00 25,1 13,4 3 2 13 7 NNE 0,0
18.06.2018 02:00:00 26,6 12,2 4 2 19 11 ENE -
18.06.2018 01:00:00 26,6 11,4 1 0 17 9 W 0,0
18.06.2018 00:00:00 28,5 11,6 8 4 14 8 N 0,0
17.06.2018 23:00:00 29,6 11,1 8 4 16 9 N 0,0
17.06.2018 22:00:00 31,5 12,3 9 5 21 11 N 0,0
17.06.2018 21:00:00 33,9 12,8 9 5 23 13 N 0,0
17.06.2018 20:00:00 35,3 14,0 11 6 20 11 NNW -
17.06.2018 19:00:00 36,6 13,4 5 3 17 9 E 0,0
17.06.2018 18:00:00 36,7 13,5 6 4 19 10 ENE 0,0
17.06.2018 17:00:00 37,2 13,9 2 1 21 11 SE 0,0
17.06.2018 16:00:00 36,7 14,6 6 3 18 10 SE 0,0
17.06.2018 15:00:00 36,0 14,6 8 4 21 11 E 0,0
17.06.2018 14:00:00 35,7 14,9 8 4 17 9 E -
17.06.2018 13:00:00 33,9 13,4 6 4 15 8 NE 0,0
17.06.2018 12:00:00 33,2 14,2 6 3 16 9 NNE 0,0
17.06.2018 11:00:00 30,7 13,9 5 3 13 7 E 0,0
17.06.2018 10:00:00 28,2 15,2 3 2 8 5 E 0,0
17.06.2018 09:00:00 25,0 16,7 2 1 5 3 E 0,0
17.06.2018 08:00:00 20,2 17,9 0 0 4 2 N -
17.06.2018 07:00:00 17,2 16,6 3 2 9 5 SW 0,0
17.06.2018 06:00:00 18,7 16,5 5 3 10 5 W 0,0
17.06.2018 05:00:00 19,0 15,9 5 3 12 7 WSW 0,0
17.06.2018 04:00:00 20,1 16,1 2 1 12 6 WSW 0,0
17.06.2018 03:00:00 21,9 14,5 7 4 13 7 WSW 0,0
17.06.2018 02:00:00 22,3 12,2 4 2 14 8 SW -
17.06.2018 01:00:00 25,2 12,1 3 1 15 8 WNW 0,0
17.06.2018 00:00:00 26,7 12,0 5 3 14 8 NNW 0,0
16.06.2018 23:00:00 28,3 12,6 5 3 11 6 N 0,0
16.06.2018 22:00:00 29,9 13,3 4 2 13 7 N 0,0
16.06.2018 21:00:00 31,7 14,3 4 2 18 10 NNW 0,0
16.06.2018 20:00:00 33,2 14,8 11 6 18 10 WSW -
16.06.2018 19:00:00 35,1 15,4 4 2 20 11 SW 0,0

tt = Température de l'air
td = dewpoint
ff = Vitesse du vent
fx = gusts
dd = Direction du vent
rr = Quantités de précipitations

stations d'obs. à proximité